AU-0013 weather

Between Lakes Private Airstrip
Western Australia, Australia

Public forecast

Using degrees Celsius for public forecast. Weather courtesy of forecast.io.

METAR (pilot weather report)

Closest report is Perth Jandakot Airport, 46.8 nm (86.7 km) NNE. Retrieved 2019/03/19 14:30 UTC (22 minutes ago):

YPJT 191430Z AUTO 22005KT 9999 // NCD 22/19 Q1010 RF00.0/000.0

TAF (pilot weather forecast)

Closest forecast is Perth Jandakot Airport, 46.8 nm (86.7 km) NNE. Retrieved 2019/03/19 12:00 UTC (3 hours ago):

TAF YPJT 191048Z 1912/2006 19005KT CAVOK FM200400 25012KT CAVOK